createdAt,value
2024-02-19T00:01:32.175Z,37.30
2024-02-19T00:03:59.386Z,37.25
2024-02-19T00:06:26.322Z,35.70
2024-02-19T00:08:53.261Z,36.85
2024-02-19T00:11:20.302Z,36.03
2024-02-19T00:13:47.786Z,34.42
2024-02-19T00:16:16.587Z,37.67
2024-02-19T00:18:43.671Z,35.63
2024-02-19T00:21:13.238Z,37.25
2024-02-19T00:23:40.599Z,36.17
2024-02-19T00:26:08.434Z,37.47
2024-02-19T00:28:35.638Z,36.50
2024-02-19T00:31:03.048Z,36.45
2024-02-19T00:33:32.997Z,34.13
2024-02-19T00:36:00.396Z,36.83
2024-02-19T00:38:27.814Z,37.40
2024-02-19T00:40:55.942Z,37.35
2024-02-19T00:43:25.237Z,36.97
2024-02-19T00:45:53.048Z,39.28
2024-02-19T00:48:20.422Z,38.58
2024-02-19T00:50:47.953Z,39.75
2024-02-19T00:53:17.332Z,36.35
2024-02-19T00:55:44.238Z,36.72
2024-02-19T00:58:12.504Z,37.60
2024-02-19T01:00:39.984Z,37.60
2024-02-19T01:03:07.304Z,37.65
2024-02-19T01:05:34.734Z,38.20
2024-02-19T01:08:01.709Z,37.95
2024-02-19T01:10:29.189Z,37.35
2024-02-19T01:12:56.184Z,37.47
2024-02-19T01:15:23.623Z,38.22
2024-02-19T01:17:51.001Z,39.13
2024-02-19T01:20:18.479Z,37.80
2024-02-19T01:22:47.651Z,38.17
2024-02-19T01:25:14.935Z,40.70
2024-02-19T01:27:43.899Z,40.60
2024-02-19T01:30:11.951Z,35.45
2024-02-19T01:32:40.944Z,38.53
2024-02-19T01:35:11.846Z,37.60
2024-02-19T01:37:42.433Z,36.30
2024-02-19T01:40:11.433Z,37.78
2024-02-19T01:42:39.894Z,35.50
2024-02-19T01:45:29.389Z,36.35
2024-02-19T01:47:59.245Z,35.35
2024-02-19T01:50:30.829Z,36.53
2024-02-19T01:53:00.440Z,34.80
2024-02-19T01:55:28.456Z,33.83
2024-02-19T01:57:57.090Z,33.88
2024-02-19T02:00:25.734Z,28.63
2024-02-19T02:02:53.273Z,31.67
2024-02-19T02:05:20.600Z,27.48
2024-02-19T02:07:49.895Z,30.05
2024-02-19T02:10:16.950Z,31.20
2024-02-19T02:12:44.432Z,29.15
2024-02-19T02:15:12.925Z,28.98
2024-02-19T02:17:41.854Z,26.98
2024-02-19T02:20:09.802Z,28.92
2024-02-19T02:22:38.294Z,25.65
2024-02-19T02:25:06.743Z,30.35
2024-02-19T02:27:35.974Z,30.55
2024-02-19T02:30:07.375Z,29.90
2024-02-19T02:32:37.525Z,28.40
2024-02-19T02:35:05.409Z,27.02
2024-02-19T02:37:35.958Z,27.88
2024-02-19T02:40:03.664Z,25.88
2024-02-19T02:42:31.787Z,23.27
2024-02-19T02:44:58.831Z,21.30
2024-02-19T02:47:26.828Z,21.30
2024-02-19T02:49:54.333Z,20.40
2024-02-19T02:52:21.758Z,19.52
2024-02-19T02:54:49.414Z,19.88
2024-02-19T02:57:18.823Z,18.23
2024-02-19T02:59:46.148Z,19.02
2024-02-19T03:02:14.122Z,17.98
2024-02-19T03:04:45.047Z,17.85
2024-02-19T03:07:13.763Z,17.58
2024-02-19T03:09:43.236Z,18.25
2024-02-19T03:12:10.847Z,17.38
2024-02-19T03:14:38.548Z,15.70
2024-02-19T03:17:05.873Z,16.23
2024-02-19T03:19:35.202Z,16.02
2024-02-19T03:22:06.035Z,17.15
2024-02-19T03:24:33.071Z,16.58
2024-02-19T03:27:05.435Z,15.77
2024-02-19T03:29:33.718Z,17.92
2024-02-19T03:32:01.234Z,18.25
2024-02-19T03:34:29.675Z,16.95
2024-02-19T03:36:57.083Z,18.48
2024-02-19T03:39:25.585Z,18.33
2024-02-19T03:41:53.061Z,18.02
2024-02-19T03:44:20.392Z,18.70
2024-02-19T03:46:47.452Z,19.10
2024-02-19T03:49:15.387Z,20.27
2024-02-19T03:51:42.847Z,18.95
2024-02-19T03:54:14.417Z,19.00
2024-02-19T03:56:41.953Z,19.42
2024-02-19T03:59:09.393Z,20.05
2024-02-19T04:01:40.585Z,18.40
2024-02-19T04:04:09.008Z,19.40
2024-02-19T04:06:38.323Z,19.70
2024-02-19T04:09:05.845Z,18.83
2024-02-19T04:11:33.318Z,18.95
2024-02-19T04:14:00.915Z,18.88
2024-02-19T04:16:28.222Z,18.52
2024-02-19T04:18:55.892Z,18.17
2024-02-19T04:21:23.148Z,17.38
2024-02-19T04:23:51.047Z,16.98
2024-02-19T04:26:20.273Z,17.10
2024-02-19T04:28:48.524Z,17.27
2024-02-19T04:31:21.742Z,15.35
2024-02-19T04:33:49.348Z,16.95
2024-02-19T04:36:16.606Z,16.42
2024-02-19T04:38:44.103Z,16.52
2024-02-19T04:41:12.749Z,16.50
2024-02-19T04:43:40.027Z,17.25
2024-02-19T04:46:08.054Z,16.52
2024-02-19T04:48:41.061Z,15.70
2024-02-19T04:51:12.538Z,15.07
2024-02-19T04:53:40.557Z,16.05
2024-02-19T04:58:43.318Z,16.92
2024-02-19T05:01:10.829Z,16.50
2024-02-19T05:03:37.910Z,16.20
2024-02-19T05:06:06.352Z,15.80
2024-02-19T05:08:33.592Z,16.40
2024-02-19T05:11:01.102Z,15.85
2024-02-19T05:13:29.078Z,17.40
2024-02-19T05:15:57.340Z,16.38
2024-02-19T05:18:26.466Z,16.98
2024-02-19T05:20:57.543Z,16.30
2024-02-19T05:23:25.131Z,17.33
2024-02-19T05:25:52.423Z,16.50
2024-02-19T05:28:19.482Z,16.20
2024-02-19T05:30:47.005Z,16.67
2024-02-19T05:33:19.838Z,17.13
2024-02-19T05:35:48.140Z,17.55
2024-02-19T05:38:16.602Z,17.95
2024-02-19T05:40:43.801Z,17.10
2024-02-19T05:43:11.118Z,17.10
2024-02-19T05:45:38.400Z,17.67
2024-02-19T05:48:06.036Z,17.65
2024-02-19T05:50:36.484Z,17.90
2024-02-19T05:53:03.665Z,18.50
2024-02-19T05:55:32.028Z,16.90
2024-02-19T05:57:59.027Z,17.30
2024-02-19T06:00:26.051Z,17.77
2024-02-19T06:02:53.106Z,16.60
2024-02-19T06:05:22.590Z,17.60
2024-02-19T06:07:50.825Z,15.38
2024-02-19T06:10:18.186Z,16.20
2024-02-19T06:12:45.300Z,15.95
2024-02-19T06:15:12.186Z,16.77
2024-02-19T06:17:39.293Z,16.20
2024-02-19T06:20:07.024Z,16.77
2024-02-19T06:22:36.245Z,16.90
2024-02-19T06:25:03.738Z,16.00
2024-02-19T06:27:31.304Z,16.95
2024-02-19T06:29:58.452Z,16.73
2024-02-19T06:32:26.450Z,15.70
2024-02-19T06:34:53.458Z,16.38
2024-02-19T06:37:20.987Z,15.63
2024-02-19T06:39:48.282Z,15.98
2024-02-19T06:42:16.320Z,15.70
2024-02-19T06:44:43.128Z,16.27
2024-02-19T06:47:10.281Z,17.25
2024-02-19T06:49:39.237Z,17.08
2024-02-19T06:52:06.800Z,16.98
2024-02-19T06:54:55.098Z,16.27
2024-02-19T06:57:46.935Z,16.30
2024-02-19T07:00:17.189Z,16.67
2024-02-19T07:02:45.177Z,17.10
2024-02-19T07:05:16.408Z,16.52
2024-02-19T07:08:01.397Z,15.40
2024-02-19T07:10:36.692Z,15.90
2024-02-19T07:13:19.378Z,15.85
2024-02-19T07:15:47.973Z,15.63
2024-02-19T07:18:17.719Z,16.25
2024-02-19T07:20:46.093Z,16.08
2024-02-19T07:23:13.454Z,15.43
2024-02-19T07:25:40.325Z,15.73
2024-02-19T07:28:07.281Z,13.80
2024-02-19T07:30:38.728Z,15.43
2024-02-19T07:33:08.206Z,15.57
2024-02-19T07:35:40.605Z,15.07
2024-02-19T07:38:12.788Z,14.75
2024-02-19T07:40:40.511Z,14.43
2024-02-19T07:43:07.979Z,14.95
2024-02-19T07:45:43.444Z,14.45
2024-02-19T07:48:12.810Z,14.32
2024-02-19T07:50:41.703Z,13.57
2024-02-19T07:53:09.327Z,13.38
2024-02-19T07:55:40.538Z,12.18
2024-02-19T07:58:07.519Z,11.13
2024-02-19T08:00:34.445Z,10.77
2024-02-19T08:03:01.345Z,9.75
2024-02-19T08:05:33.388Z,10.32
2024-02-19T08:08:01.411Z,8.57
2024-02-19T08:10:32.818Z,8.93
2024-02-19T08:13:04.991Z,8.23
2024-02-19T08:15:40.269Z,6.82
2024-02-19T08:18:08.890Z,7.28
2024-02-19T08:20:38.503Z,7.22
2024-02-19T08:23:20.476Z,7.25
2024-02-19T08:26:15.227Z,6.28
2024-02-19T08:28:45.121Z,6.30
2024-02-19T08:31:12.002Z,6.78
2024-02-19T08:33:40.280Z,6.30
2024-02-19T08:36:10.328Z,6.97
2024-02-19T08:38:46.254Z,7.95
2024-02-19T08:41:15.671Z,8.27
2024-02-19T08:43:46.111Z,8.00
2024-02-19T08:46:17.026Z,8.60
2024-02-19T08:48:44.707Z,9.55
2024-02-19T08:51:12.122Z,9.32
2024-02-19T08:53:40.161Z,8.63
2024-02-19T08:56:17.790Z,9.13
2024-02-19T08:59:08.175Z,10.80
2024-02-19T09:01:42.440Z,11.45
2024-02-19T09:04:09.534Z,11.38
2024-02-19T09:06:44.734Z,11.70
2024-02-19T09:09:12.091Z,11.75
2024-02-19T09:11:41.045Z,12.27
2024-02-19T09:14:10.890Z,11.70
2024-02-19T09:16:40.862Z,11.25
2024-02-19T09:19:22.284Z,10.45
2024-02-19T09:21:50.365Z,11.00
2024-02-19T09:24:21.713Z,11.05
2024-02-19T09:27:05.742Z,10.35
2024-02-19T09:29:46.519Z,10.05
2024-02-19T09:32:16.845Z,10.85
2024-02-19T09:34:47.209Z,10.65
2024-02-19T09:37:17.380Z,10.15
2024-02-19T09:39:51.802Z,9.95
2024-02-19T09:42:21.121Z,10.27
2024-02-19T09:45:20.789Z,10.80
2024-02-19T09:48:07.175Z,9.25
2024-02-19T09:50:44.979Z,8.88
2024-02-19T09:53:23.898Z,8.30
2024-02-19T09:55:52.179Z,7.65
2024-02-19T09:58:19.228Z,7.65
2024-02-19T10:01:09.414Z,7.22
2024-02-19T10:04:01.541Z,7.53
2024-02-19T10:06:52.438Z,6.93
2024-02-19T10:10:01.697Z,7.35
2024-02-19T10:12:45.799Z,7.22
2024-02-19T10:15:13.845Z,6.90
2024-02-19T10:17:42.014Z,6.60
2024-02-19T10:20:13.373Z,6.30
2024-02-19T10:22:40.408Z,6.00
2024-02-19T10:25:21.145Z,5.95
2024-02-19T10:27:50.596Z,5.40
2024-02-19T10:31:08.995Z,5.78
2024-02-19T10:36:41.846Z,4.68
2024-02-19T10:39:10.338Z,3.53
2024-02-19T10:41:55.978Z,3.90
2024-02-19T10:44:24.582Z,3.70
2024-02-19T10:47:01.145Z,3.13
2024-02-19T10:49:59.455Z,3.70
2024-02-19T10:52:41.231Z,2.90
2024-02-19T10:55:32.576Z,4.00
2024-02-19T10:58:18.418Z,3.00
2024-02-19T11:00:49.075Z,2.50
2024-02-19T11:03:19.438Z,2.85
2024-02-19T11:05:49.096Z,2.60
2024-02-19T11:08:20.544Z,1.77
2024-02-19T11:10:53.917Z,1.50
2024-02-19T11:15:51.124Z,1.70
2024-02-19T11:18:20.537Z,1.40
2024-02-19T11:20:48.960Z,1.00
2024-02-19T11:23:17.452Z,1.55
2024-02-19T11:25:49.335Z,1.60
2024-02-19T11:28:16.756Z,1.30
2024-02-19T11:33:26.375Z,1.20
2024-02-19T11:35:58.195Z,1.17
2024-02-19T11:38:33.465Z,1.10
2024-02-19T11:41:02.902Z,1.02
2024-02-19T11:43:32.605Z,1.70
2024-02-19T11:46:00.306Z,12.40
2024-02-19T11:48:27.685Z,1.58
2024-02-19T11:50:54.982Z,0.80
2024-02-19T11:53:25.348Z,0.93
2024-02-19T11:56:03.806Z,0.70
2024-02-19T11:58:31.330Z,0.80
2024-02-19T12:00:59.226Z,0.70
2024-02-19T12:03:30.390Z,0.90
2024-02-19T12:06:02.505Z,0.80
2024-02-19T12:08:34.730Z,0.90
2024-02-19T12:11:01.871Z,1.00
2024-02-19T12:13:29.298Z,0.80
2024-02-19T12:15:58.101Z,1.00
2024-02-19T12:18:26.201Z,1.20
2024-02-19T12:20:53.595Z,1.20
2024-02-19T12:23:22.252Z,1.10
2024-02-19T12:25:49.436Z,1.40
2024-02-19T12:28:16.530Z,1.35
2024-02-19T12:30:43.887Z,0.90
2024-02-19T12:33:18.073Z,0.93
2024-02-19T12:35:54.319Z,1.30
2024-02-19T12:38:23.763Z,1.42
2024-02-19T12:40:51.769Z,2.78
2024-02-19T12:43:20.344Z,7.05
2024-02-19T12:45:51.635Z,1.65
2024-02-19T12:48:30.360Z,2.03
2024-02-19T12:51:02.619Z,4.45
2024-02-19T12:53:32.478Z,2.58
2024-02-19T12:55:59.515Z,2.65
2024-02-19T12:58:31.135Z,3.67
2024-02-19T13:00:58.531Z,3.50
2024-02-19T13:03:26.058Z,3.17
2024-02-19T13:05:55.676Z,5.40
2024-02-19T13:08:22.825Z,5.10
2024-02-19T13:10:51.244Z,13.40
2024-02-19T13:13:19.666Z,3.80
2024-02-19T13:15:50.664Z,3.10
2024-02-19T13:18:18.471Z,4.47
2024-02-19T13:20:45.956Z,3.75
2024-02-19T13:23:13.267Z,4.38
2024-02-19T13:25:40.139Z,3.80
2024-02-19T13:28:07.755Z,3.60
2024-02-19T13:30:35.066Z,3.25
2024-02-19T13:33:07.697Z,4.70
2024-02-19T13:35:35.670Z,6.20
2024-02-19T13:38:05.614Z,4.38
2024-02-19T13:40:32.999Z,7.60
2024-02-19T13:43:00.220Z,7.97
2024-02-19T13:45:49.914Z,7.30
2024-02-19T13:48:22.735Z,8.20
2024-02-19T13:50:49.979Z,7.20
2024-02-19T13:53:17.206Z,5.43
2024-02-19T13:55:44.634Z,3.47
2024-02-19T13:58:12.542Z,3.80
2024-02-19T14:00:39.862Z,2.78
2024-02-19T14:03:10.261Z,3.42
2024-02-19T14:05:38.531Z,2.83
2024-02-19T14:08:09.592Z,2.80
2024-02-19T14:10:38.531Z,18.50
2024-02-19T14:13:07.004Z,2.40
2024-02-19T14:15:34.421Z,2.00
2024-02-19T14:18:01.857Z,2.33
2024-02-19T14:20:32.686Z,1.55
2024-02-19T14:22:59.442Z,2.00
2024-02-19T14:25:27.252Z,1.88
2024-02-19T14:27:56.470Z,1.30
2024-02-19T14:30:24.853Z,1.40
2024-02-19T14:32:53.840Z,1.70
2024-02-19T14:35:22.138Z,1.30
2024-02-19T14:37:49.481Z,1.40
2024-02-19T14:40:20.603Z,1.38
2024-02-19T14:42:51.783Z,2.00
2024-02-19T14:45:19.082Z,8.65
2024-02-19T14:47:49.605Z,2.20
2024-02-19T14:50:17.485Z,2.35
2024-02-19T14:52:45.683Z,1.10
2024-02-19T14:55:15.369Z,1.48
2024-02-19T14:57:45.470Z,1.20
2024-02-19T15:00:18.133Z,1.80
2024-02-19T15:02:46.485Z,1.33
2024-02-19T15:05:13.662Z,1.40
2024-02-19T15:07:42.995Z,1.50
2024-02-19T15:10:15.908Z,1.30
2024-02-19T15:12:44.619Z,1.50
2024-02-19T15:17:54.704Z,12.70
2024-02-19T15:20:23.365Z,2.42
2024-02-19T15:22:51.793Z,2.00
2024-02-19T15:25:19.163Z,1.80
2024-02-19T15:27:48.045Z,1.60
2024-02-19T15:30:16.419Z,1.48
2024-02-19T15:32:43.448Z,1.60
2024-02-19T15:35:10.632Z,1.50
2024-02-19T15:37:37.825Z,1.40
2024-02-19T15:40:06.947Z,12.02
2024-02-19T15:42:38.105Z,2.10
2024-02-19T15:45:06.050Z,2.10
2024-02-19T15:47:33.335Z,2.30
2024-02-19T15:50:01.333Z,2.03
2024-02-19T15:52:30.586Z,1.85
2024-02-19T15:54:57.843Z,2.00
2024-02-19T15:57:26.318Z,1.70
2024-02-19T15:59:53.402Z,1.80
2024-02-19T16:02:20.864Z,1.90
2024-02-19T16:04:47.873Z,2.08
2024-02-19T16:07:17.021Z,1.80
2024-02-19T16:09:45.176Z,2.30
2024-02-19T16:12:12.625Z,2.30
2024-02-19T16:14:41.175Z,2.30
2024-02-19T16:17:10.879Z,2.10
2024-02-19T16:19:39.108Z,2.13
2024-02-19T16:22:07.364Z,2.08
2024-02-19T16:24:35.945Z,2.25
2024-02-19T16:27:07.170Z,2.70
2024-02-19T16:29:34.274Z,2.72
2024-02-19T16:32:02.210Z,2.85
2024-02-19T16:34:31.882Z,2.67
2024-02-19T16:37:01.316Z,2.10
2024-02-19T16:39:29.704Z,1.90
2024-02-19T16:41:57.366Z,2.00
2024-02-19T16:44:26.443Z,2.65
2024-02-19T16:46:53.623Z,3.92
2024-02-19T16:49:20.884Z,3.88
2024-02-19T16:51:49.342Z,3.13
2024-02-19T16:54:21.372Z,4.63
2024-02-19T16:56:49.737Z,4.30
2024-02-19T16:59:17.077Z,5.40
2024-02-19T17:01:46.967Z,4.07
2024-02-19T17:04:14.002Z,4.35
2024-02-19T17:06:43.744Z,3.67
2024-02-19T17:09:11.163Z,4.90
2024-02-19T17:11:38.267Z,4.47
2024-02-19T17:14:05.551Z,4.03
2024-02-19T17:16:34.877Z,4.57
2024-02-19T17:19:05.758Z,5.32
2024-02-19T17:21:33.090Z,6.22
2024-02-19T17:24:01.277Z,6.50
2024-02-19T17:26:30.746Z,6.00
2024-02-19T17:29:00.184Z,5.40
2024-02-19T17:31:29.458Z,14.10
2024-02-19T17:33:56.763Z,3.97
2024-02-19T17:36:23.957Z,5.22
2024-02-19T17:38:51.496Z,4.20
2024-02-19T17:41:18.763Z,5.75
2024-02-19T17:43:48.473Z,3.53
2024-02-19T17:46:18.757Z,5.22
2024-02-19T17:48:47.636Z,4.57
2024-02-19T17:51:22.863Z,3.50
2024-02-19T17:53:53.647Z,3.20
2024-02-19T17:56:20.899Z,4.43
2024-02-19T17:58:48.885Z,4.05
2024-02-19T18:01:16.840Z,4.22
2024-02-19T18:03:44.815Z,7.85
2024-02-19T18:06:12.640Z,3.90
2024-02-19T18:08:40.915Z,4.80
2024-02-19T18:11:08.814Z,14.40
2024-02-19T18:13:36.562Z,7.30
2024-02-19T18:16:03.939Z,4.85
2024-02-19T18:18:35.221Z,4.38
2024-02-19T18:21:02.264Z,3.97
2024-02-19T18:23:30.125Z,3.53
2024-02-19T18:25:57.711Z,5.90
2024-02-19T18:28:26.348Z,4.60
2024-02-19T18:30:55.438Z,4.80
2024-02-19T18:33:26.880Z,4.32
2024-02-19T18:35:54.108Z,4.78
2024-02-19T18:38:22.005Z,4.75
2024-02-19T18:40:49.477Z,4.75
2024-02-19T18:43:19.523Z,3.85
2024-02-19T18:45:47.312Z,4.95
2024-02-19T18:48:14.597Z,4.72
2024-02-19T18:50:41.872Z,5.95
2024-02-19T18:53:10.396Z,6.97
2024-02-19T18:55:37.303Z,8.05
2024-02-19T18:58:04.342Z,4.45
2024-02-19T19:00:33.794Z,6.18
2024-02-19T19:03:02.271Z,4.80
2024-02-19T19:05:29.238Z,4.72
2024-02-19T19:07:56.581Z,4.95
2024-02-19T19:10:24.661Z,4.70
2024-02-19T19:12:51.725Z,4.50
2024-02-19T19:15:18.594Z,4.88
2024-02-19T19:17:46.401Z,4.20
2024-02-19T19:20:14.666Z,4.35
2024-02-19T19:22:42.300Z,3.90
2024-02-19T19:25:10.694Z,4.13
2024-02-19T19:27:38.026Z,4.40
2024-02-19T19:30:05.890Z,4.40
2024-02-19T19:32:36.080Z,4.28
2024-02-19T19:35:03.893Z,4.72
2024-02-19T19:37:31.220Z,4.30
2024-02-19T19:39:59.216Z,4.35
2024-02-19T19:42:26.927Z,4.18
2024-02-19T19:44:56.108Z,3.95
2024-02-19T19:47:23.937Z,3.58
2024-02-19T19:49:52.471Z,3.70
2024-02-19T19:52:19.854Z,3.50
2024-02-19T19:54:47.652Z,3.40
2024-02-19T19:57:15.147Z,3.40
2024-02-19T19:59:52.152Z,3.88
2024-02-19T20:02:19.257Z,3.75
2024-02-19T20:04:52.744Z,3.60
2024-02-19T20:07:20.478Z,3.22
2024-02-19T20:09:48.078Z,3.80
2024-02-19T20:12:15.292Z,3.70
2024-02-19T20:14:42.507Z,3.90
2024-02-19T20:17:09.901Z,4.00
2024-02-19T20:19:42.537Z,3.63
2024-02-19T20:22:11.620Z,4.20
2024-02-19T20:24:41.920Z,4.00
2024-02-19T20:27:09.204Z,3.90
2024-02-19T20:29:36.465Z,4.85
2024-02-19T20:32:05.729Z,4.22
2024-02-19T20:34:35.846Z,4.10
2024-02-19T20:37:03.020Z,4.25
2024-02-19T20:39:32.052Z,4.25
2024-02-19T20:41:59.484Z,4.38
2024-02-19T20:44:28.523Z,4.13
2024-02-19T20:46:56.685Z,4.32
2024-02-19T20:49:25.278Z,4.20
2024-02-19T20:51:52.334Z,4.63
2024-02-19T20:54:20.327Z,4.97
2024-02-19T20:56:50.680Z,4.75
2024-02-19T20:59:17.702Z,4.47
2024-02-19T21:01:47.814Z,4.50
2024-02-19T21:04:14.993Z,4.80
2024-02-19T21:06:42.350Z,5.10
2024-02-19T21:09:09.350Z,4.75
2024-02-19T21:11:36.325Z,4.72
2024-02-19T21:16:45.685Z,4.72
2024-02-19T21:19:13.743Z,4.80
2024-02-19T21:21:41.132Z,5.15
2024-02-19T21:24:11.535Z,5.00
2024-02-19T21:26:38.515Z,4.32
2024-02-19T21:29:05.614Z,3.83
2024-02-19T21:31:32.668Z,4.00
2024-02-19T21:34:00.723Z,4.18
2024-02-19T21:36:27.957Z,3.88
2024-02-19T21:38:56.011Z,3.10
2024-02-19T21:41:24.566Z,3.38
2024-02-19T21:43:51.768Z,3.20
2024-02-19T21:46:19.933Z,2.72
2024-02-19T21:48:47.424Z,2.50
2024-02-19T21:51:14.683Z,2.67
2024-02-19T21:53:42.743Z,2.20
2024-02-19T21:56:10.408Z,2.28
2024-02-19T21:58:38.390Z,2.17
2024-02-19T22:01:15.696Z,2.22
2024-02-19T22:03:43.854Z,1.90
2024-02-19T22:06:12.935Z,2.13
2024-02-19T22:08:40.821Z,2.30
2024-02-19T22:11:08.382Z,1.90
2024-02-19T22:13:35.856Z,2.55
2024-02-19T22:16:05.450Z,2.30
2024-02-19T22:18:38.103Z,2.05
2024-02-19T22:21:05.509Z,1.80
2024-02-19T22:23:32.705Z,2.00
2024-02-19T22:26:00.184Z,1.70
2024-02-19T22:28:27.061Z,1.80
2024-02-19T22:30:54.003Z,1.90
2024-02-19T22:33:22.053Z,1.80
2024-02-19T22:35:49.363Z,1.80
2024-02-19T22:38:18.449Z,1.80
2024-02-19T22:40:45.710Z,1.52
2024-02-19T22:43:14.098Z,1.90
2024-02-19T22:45:41.584Z,1.80
2024-02-19T22:48:10.382Z,1.70
2024-02-19T22:50:39.142Z,1.88
2024-02-19T22:53:07.493Z,1.90
2024-02-19T22:55:34.919Z,1.42
2024-02-19T22:58:02.449Z,1.75
2024-02-19T23:00:36.411Z,1.80
2024-02-19T23:03:05.000Z,1.40
2024-02-19T23:05:33.450Z,1.30
2024-02-19T23:08:02.270Z,1.60
2024-02-19T23:10:29.965Z,2.13
2024-02-19T23:13:00.251Z,1.60
2024-02-19T23:15:27.175Z,1.48
2024-02-19T23:17:54.597Z,1.70
2024-02-19T23:20:22.671Z,1.63
2024-02-19T23:22:49.794Z,1.80
2024-02-19T23:25:17.259Z,1.77
2024-02-19T23:27:44.493Z,1.60
2024-02-19T23:30:12.570Z,1.70
2024-02-19T23:32:40.493Z,1.70
2024-02-19T23:35:08.353Z,2.03
2024-02-19T23:37:35.490Z,2.28
2024-02-19T23:40:02.561Z,2.03
2024-02-19T23:42:29.761Z,1.60
2024-02-19T23:44:58.676Z,1.92
2024-02-19T23:47:25.677Z,1.90
2024-02-19T23:49:53.656Z,1.70
2024-02-19T23:52:21.731Z,1.88
2024-02-19T23:54:49.030Z,2.17
2024-02-19T23:57:16.006Z,1.83
2024-02-19T23:59:45.087Z,2.08
